sensor_id;sensor_type;location;lat;lon;timestamp;P1;durP1;ratioP1;P2;durP2;ratioP2
67571;SDS011;54397;47.506;19.158;2022-09-23T00:00:21;10.23;;;7.22;;
67571;SDS011;54397;47.506;19.158;2022-09-23T00:03:44;10.40;;;7.13;;
67571;SDS011;54397;47.506;19.158;2022-09-23T00:07:09;11.52;;;7.28;;
67571;SDS011;54397;47.506;19.158;2022-09-23T00:10:30;11.05;;;7.55;;
67571;SDS011;54397;47.506;19.158;2022-09-23T00:13:56;11.32;;;6.88;;
67571;SDS011;54397;47.506;19.158;2022-09-23T00:17:22;42.25;;;25.90;;
67571;SDS011;54397;47.506;19.158;2022-09-23T00:20:43;17.90;;;12.43;;
67571;SDS011;54397;47.506;19.158;2022-09-23T00:24:05;10.38;;;7.28;;
67571;SDS011;54397;47.506;19.158;2022-09-23T00:27:30;10.38;;;6.82;;
67571;SDS011;54397;47.506;19.158;2022-09-23T00:30:54;9.27;;;6.80;;
67571;SDS011;54397;47.506;19.158;2022-09-23T00:34:16;10.23;;;6.43;;
67571;SDS011;54397;47.506;19.158;2022-09-23T00:37:37;10.20;;;7.15;;
67571;SDS011;54397;47.506;19.158;2022-09-23T00:40:59;8.60;;;6.30;;
67571;SDS011;54397;47.506;19.158;2022-09-23T00:44:40;9.70;;;6.78;;
67571;SDS011;54397;47.506;19.158;2022-09-23T00:48:13;11.30;;;7.30;;
67571;SDS011;54397;47.506;19.158;2022-09-23T00:51:47;8.68;;;6.65;;
67571;SDS011;54397;47.506;19.158;2022-09-23T00:55:25;10.55;;;8.13;;
67571;SDS011;54397;47.506;19.158;2022-09-23T00:58:53;54.33;;;32.15;;
67571;SDS011;54397;47.506;19.158;2022-09-23T01:02:15;11.32;;;7.97;;
67571;SDS011;54397;47.506;19.158;2022-09-23T01:05:41;9.88;;;7.15;;
67571;SDS011;54397;47.506;19.158;2022-09-23T01:09:03;9.73;;;6.75;;
67571;SDS011;54397;47.506;19.158;2022-09-23T01:16:13;11.82;;;7.45;;
67571;SDS011;54397;47.506;19.158;2022-09-23T01:37:56;13.70;;;7.18;;
67571;SDS011;54397;47.506;19.158;2022-09-23T01:45:14;11.32;;;7.30;;
67571;SDS011;54397;47.506;19.158;2022-09-23T01:48:39;10.20;;;6.97;;
67571;SDS011;54397;47.506;19.158;2022-09-23T01:52:17;12.45;;;7.10;;
67571;SDS011;54397;47.506;19.158;2022-09-23T01:55:50;9.65;;;6.65;;
67571;SDS011;54397;47.506;19.158;2022-09-23T02:03:11;10.70;;;6.72;;
67571;SDS011;54397;47.506;19.158;2022-09-23T02:06:38;10.68;;;7.22;;
67571;SDS011;54397;47.506;19.158;2022-09-23T02:10:12;9.90;;;6.93;;
67571;SDS011;54397;47.506;19.158;2022-09-23T02:17:15;9.90;;;7.20;;
67571;SDS011;54397;47.506;19.158;2022-09-23T02:20:43;9.77;;;6.63;;
67571;SDS011;54397;47.506;19.158;2022-09-23T02:31:32;9.55;;;6.70;;
67571;SDS011;54397;47.506;19.158;2022-09-23T02:38:51;11.52;;;6.63;;
67571;SDS011;54397;47.506;19.158;2022-09-23T02:42:20;13.18;;;6.63;;
67571;SDS011;54397;47.506;19.158;2022-09-23T02:45:45;8.50;;;6.28;;
67571;SDS011;54397;47.506;19.158;2022-09-23T02:49:13;12.40;;;6.68;;
67571;SDS011;54397;47.506;19.158;2022-09-23T02:52:40;9.80;;;6.60;;
67571;SDS011;54397;47.506;19.158;2022-09-23T02:56:12;9.90;;;6.72;;
67571;SDS011;54397;47.506;19.158;2022-09-23T02:59:41;9.45;;;6.20;;
67571;SDS011;54397;47.506;19.158;2022-09-23T03:03:09;11.77;;;6.67;;
67571;SDS011;54397;47.506;19.158;2022-09-23T03:10:39;7.97;;;6.40;;
67571;SDS011;54397;47.506;19.158;2022-09-23T03:17:45;8.90;;;5.97;;
67571;SDS011;54397;47.506;19.158;2022-09-23T03:24:42;11.15;;;6.55;;
67571;SDS011;54397;47.506;19.158;2022-09-23T03:28:05;9.68;;;6.45;;
67571;SDS011;54397;47.506;19.158;2022-09-23T03:31:31;10.30;;;6.57;;
67571;SDS011;54397;47.506;19.158;2022-09-23T03:34:57;8.63;;;5.87;;
67571;SDS011;54397;47.506;19.158;2022-09-23T03:38:23;10.90;;;5.77;;
67571;SDS011;54397;47.506;19.158;2022-09-23T03:41:48;7.55;;;5.93;;
67571;SDS011;54397;47.506;19.158;2022-09-23T03:45:14;7.43;;;5.07;;
67571;SDS011;54397;47.506;19.158;2022-09-23T03:48:39;7.73;;;5.27;;
67571;SDS011;54397;47.506;19.158;2022-09-23T03:52:01;7.45;;;5.57;;
67571;SDS011;54397;47.506;19.158;2022-09-23T03:55:25;7.72;;;5.85;;
67571;SDS011;54397;47.506;19.158;2022-09-23T03:58:49;9.80;;;5.67;;
67571;SDS011;54397;47.506;19.158;2022-09-23T04:02:11;9.05;;;5.65;;
67571;SDS011;54397;47.506;19.158;2022-09-23T04:05:32;8.50;;;5.60;;
67571;SDS011;54397;47.506;19.158;2022-09-23T04:08:56;8.27;;;5.57;;
67571;SDS011;54397;47.506;19.158;2022-09-23T04:12:20;8.05;;;5.07;;
67571;SDS011;54397;47.506;19.158;2022-09-23T04:15:48;7.38;;;5.15;;
67571;SDS011;54397;47.506;19.158;2022-09-23T04:19:10;7.77;;;6.00;;
67571;SDS011;54397;47.506;19.158;2022-09-23T04:22:33;14.40;;;6.37;;
67571;SDS011;54397;47.506;19.158;2022-09-23T04:25:57;11.15;;;5.57;;
67571;SDS011;54397;47.506;19.158;2022-09-23T04:29:21;9.32;;;5.60;;
67571;SDS011;54397;47.506;19.158;2022-09-23T04:32:46;8.77;;;5.70;;
67571;SDS011;54397;47.506;19.158;2022-09-23T04:36:12;8.10;;;5.50;;
67571;SDS011;54397;47.506;19.158;2022-09-23T04:39:35;10.00;;;5.72;;
67571;SDS011;54397;47.506;19.158;2022-09-23T04:42:57;8.33;;;5.23;;
67571;SDS011;54397;47.506;19.158;2022-09-23T04:46:19;8.90;;;5.53;;
67571;SDS011;54397;47.506;19.158;2022-09-23T04:49:41;8.07;;;5.17;;
67571;SDS011;54397;47.506;19.158;2022-09-23T04:53:05;11.80;;;6.00;;
67571;SDS011;54397;47.506;19.158;2022-09-23T04:56:27;13.25;;;5.40;;
67571;SDS011;54397;47.506;19.158;2022-09-23T04:59:53;9.15;;;5.47;;
67571;SDS011;54397;47.506;19.158;2022-09-23T05:03:17;10.00;;;5.97;;
67571;SDS011;54397;47.506;19.158;2022-09-23T05:06:39;13.50;;;5.53;;
67571;SDS011;54397;47.506;19.158;2022-09-23T05:10:04;11.60;;;6.07;;
67571;SDS011;54397;47.506;19.158;2022-09-23T05:13:26;9.93;;;5.60;;
67571;SDS011;54397;47.506;19.158;2022-09-23T05:16:50;9.32;;;5.43;;
67571;SDS011;54397;47.506;19.158;2022-09-23T05:20:12;10.25;;;6.15;;
67571;SDS011;54397;47.506;19.158;2022-09-23T05:23:34;8.23;;;5.65;;
67571;SDS011;54397;47.506;19.158;2022-09-23T05:26:58;9.20;;;5.47;;
67571;SDS011;54397;47.506;19.158;2022-09-23T05:30:21;11.40;;;6.35;;
67571;SDS011;54397;47.506;19.158;2022-09-23T05:33:46;8.38;;;5.97;;
67571;SDS011;54397;47.506;19.158;2022-09-23T05:37:09;8.77;;;5.78;;
67571;SDS011;54397;47.506;19.158;2022-09-23T05:40:30;9.98;;;5.60;;
67571;SDS011;54397;47.506;19.158;2022-09-23T05:43:52;8.45;;;5.93;;
67571;SDS011;54397;47.506;19.158;2022-09-23T05:47:18;10.15;;;5.60;;
67571;SDS011;54397;47.506;19.158;2022-09-23T05:50:47;11.35;;;5.80;;
67571;SDS011;54397;47.506;19.158;2022-09-23T05:54:12;9.32;;;6.68;;
67571;SDS011;54397;47.506;19.158;2022-09-23T05:57:33;12.23;;;6.90;;
67571;SDS011;54397;47.506;19.158;2022-09-23T06:00:59;9.52;;;5.88;;
67571;SDS011;54397;47.506;19.158;2022-09-23T06:04:23;7.70;;;5.82;;
67571;SDS011;54397;47.506;19.158;2022-09-23T06:07:45;9.73;;;6.55;;
67571;SDS011;54397;47.506;19.158;2022-09-23T06:11:12;10.43;;;6.05;;
67571;SDS011;54397;47.506;19.158;2022-09-23T06:14:34;8.27;;;5.60;;
67571;SDS011;54397;47.506;19.158;2022-09-23T06:17:55;7.15;;;5.30;;
67571;SDS011;54397;47.506;19.158;2022-09-23T06:21:20;8.45;;;5.03;;
67571;SDS011;54397;47.506;19.158;2022-09-23T06:24:41;8.80;;;5.10;;
67571;SDS011;54397;47.506;19.158;2022-09-23T06:28:03;6.55;;;4.53;;
67571;SDS011;54397;47.506;19.158;2022-09-23T06:31:25;16.30;;;4.47;;
67571;SDS011;54397;47.506;19.158;2022-09-23T06:34:46;8.27;;;5.93;;
67571;SDS011;54397;47.506;19.158;2022-09-23T06:38:12;6.22;;;5.13;;
67571;SDS011;54397;47.506;19.158;2022-09-23T06:41:33;8.95;;;5.57;;
67571;SDS011;54397;47.506;19.158;2022-09-23T06:44:55;8.63;;;5.70;;
67571;SDS011;54397;47.506;19.158;2022-09-23T06:48:17;9.93;;;6.38;;
67571;SDS011;54397;47.506;19.158;2022-09-23T06:51:43;14.80;;;6.25;;
67571;SDS011;54397;47.506;19.158;2022-09-23T06:55:07;8.93;;;5.53;;
67571;SDS011;54397;47.506;19.158;2022-09-23T06:58:32;10.13;;;6.50;;
67571;SDS011;54397;47.506;19.158;2022-09-23T07:01:55;12.10;;;6.05;;
67571;SDS011;54397;47.506;19.158;2022-09-23T07:05:19;9.88;;;5.88;;
67571;SDS011;54397;47.506;19.158;2022-09-23T07:08:45;9.02;;;4.70;;
67571;SDS011;54397;47.506;19.158;2022-09-23T07:12:11;10.30;;;4.82;;
67571;SDS011;54397;47.506;19.158;2022-09-23T07:15:37;9.63;;;5.10;;
67571;SDS011;54397;47.506;19.158;2022-09-23T07:18:59;8.02;;;4.80;;
67571;SDS011;54397;47.506;19.158;2022-09-23T07:22:23;8.57;;;3.95;;
67571;SDS011;54397;47.506;19.158;2022-09-23T07:25:46;11.13;;;5.28;;
67571;SDS011;54397;47.506;19.158;2022-09-23T07:29:11;4.53;;;3.60;;
67571;SDS011;54397;47.506;19.158;2022-09-23T07:32:36;4.13;;;3.45;;
67571;SDS011;54397;47.506;19.158;2022-09-23T07:36:10;7.45;;;3.95;;
67571;SDS011;54397;47.506;19.158;2022-09-23T07:39:33;3.95;;;3.47;;
67571;SDS011;54397;47.506;19.158;2022-09-23T07:43:00;4.88;;;3.53;;
67571;SDS011;54397;47.506;19.158;2022-09-23T07:46:26;4.27;;;3.33;;
67571;SDS011;54397;47.506;19.158;2022-09-23T07:49:50;5.60;;;3.40;;
67571;SDS011;54397;47.506;19.158;2022-09-23T07:53:14;4.30;;;3.28;;
67571;SDS011;54397;47.506;19.158;2022-09-23T07:56:36;4.38;;;3.58;;
67571;SDS011;54397;47.506;19.158;2022-09-23T07:59:58;4.55;;;3.67;;
67571;SDS011;54397;47.506;19.158;2022-09-23T08:03:21;5.45;;;3.45;;
67571;SDS011;54397;47.506;19.158;2022-09-23T08:06:45;6.32;;;3.30;;
67571;SDS011;54397;47.506;19.158;2022-09-23T08:10:09;6.97;;;3.60;;
67571;SDS011;54397;47.506;19.158;2022-09-23T08:13:30;3.25;;;2.88;;
67571;SDS011;54397;47.506;19.158;2022-09-23T08:16:54;5.45;;;3.33;;
67571;SDS011;54397;47.506;19.158;2022-09-23T08:20:17;5.72;;;3.40;;
67571;SDS011;54397;47.506;19.158;2022-09-23T08:24:07;8.05;;;3.30;;
67571;SDS011;54397;47.506;19.158;2022-09-23T08:27:33;5.20;;;3.42;;
67571;SDS011;54397;47.506;19.158;2022-09-23T08:30:55;3.08;;;2.78;;
67571;SDS011;54397;47.506;19.158;2022-09-23T08:34:17;4.22;;;3.00;;
67571;SDS011;54397;47.506;19.158;2022-09-23T08:37:40;3.83;;;3.20;;
67571;SDS011;54397;47.506;19.158;2022-09-23T08:44:56;3.47;;;2.78;;
67571;SDS011;54397;47.506;19.158;2022-09-23T08:48:26;4.85;;;2.55;;
67571;SDS011;54397;47.506;19.158;2022-09-23T08:51:52;4.32;;;2.75;;
67571;SDS011;54397;47.506;19.158;2022-09-23T08:55:15;2.72;;;2.40;;
67571;SDS011;54397;47.506;19.158;2022-09-23T09:02:13;3.88;;;2.33;;
67571;SDS011;54397;47.506;19.158;2022-09-23T09:05:38;4.80;;;2.90;;
67571;SDS011;54397;47.506;19.158;2022-09-23T09:09:01;5.05;;;2.53;;
67571;SDS011;54397;47.506;19.158;2022-09-23T09:12:41;3.75;;;2.63;;
67571;SDS011;54397;47.506;19.158;2022-09-23T09:16:30;2.70;;;2.40;;
67571;SDS011;54397;47.506;19.158;2022-09-23T09:20:22;4.53;;;2.35;;
67571;SDS011;54397;47.506;19.158;2022-09-23T09:23:56;4.80;;;2.63;;
67571;SDS011;54397;47.506;19.158;2022-09-23T09:27:21;2.58;;;2.38;;
67571;SDS011;54397;47.506;19.158;2022-09-23T09:30:44;2.58;;;2.38;;
67571;SDS011;54397;47.506;19.158;2022-09-23T09:37:54;17.67;;;14.25;;
67571;SDS011;54397;47.506;19.158;2022-09-23T09:41:17;6.03;;;4.45;;
67571;SDS011;54397;47.506;19.158;2022-09-23T09:48:10;4.50;;;2.53;;
67571;SDS011;54397;47.506;19.158;2022-09-23T09:51:38;3.78;;;2.55;;
67571;SDS011;54397;47.506;19.158;2022-09-23T10:12:28;4.47;;;3.20;;
67571;SDS011;54397;47.506;19.158;2022-09-23T10:16:10;4.03;;;2.90;;
67571;SDS011;54397;47.506;19.158;2022-09-23T10:19:35;3.92;;;2.95;;
67571;SDS011;54397;47.506;19.158;2022-09-23T10:23:07;5.28;;;2.85;;
67571;SDS011;54397;47.506;19.158;2022-09-23T10:26:40;3.75;;;3.30;;
67571;SDS011;54397;47.506;19.158;2022-09-23T10:30:18;2.90;;;2.60;;
67571;SDS011;54397;47.506;19.158;2022-09-23T10:33:48;5.03;;;2.92;;
67571;SDS011;54397;47.506;19.158;2022-09-23T10:37:22;5.47;;;3.03;;
67571;SDS011;54397;47.506;19.158;2022-09-23T10:40:50;3.40;;;3.08;;
67571;SDS011;54397;47.506;19.158;2022-09-23T10:44:35;3.70;;;2.45;;
67571;SDS011;54397;47.506;19.158;2022-09-23T10:59:43;6.50;;;3.17;;
67571;SDS011;54397;47.506;19.158;2022-09-23T11:25:45;3.13;;;2.17;;
67571;SDS011;54397;47.506;19.158;2022-09-23T11:29:37;4.03;;;2.30;;
67571;SDS011;54397;47.506;19.158;2022-09-23T11:33:18;4.85;;;2.90;;
67571;SDS011;54397;47.506;19.158;2022-09-23T11:37:10;4.82;;;3.67;;
67571;SDS011;54397;47.506;19.158;2022-09-23T11:40:36;3.85;;;2.60;;
67571;SDS011;54397;47.506;19.158;2022-09-23T11:47:53;3.95;;;2.80;;
67571;SDS011;54397;47.506;19.158;2022-09-23T11:51:24;5.43;;;2.72;;
67571;SDS011;54397;47.506;19.158;2022-09-23T11:58:28;7.32;;;2.72;;
67571;SDS011;54397;47.506;19.158;2022-09-23T12:02:02;20.77;;;15.15;;
67571;SDS011;54397;47.506;19.158;2022-09-23T12:05:43;4.45;;;3.50;;
67571;SDS011;54397;47.506;19.158;2022-09-23T12:09:52;6.35;;;3.35;;
67571;SDS011;54397;47.506;19.158;2022-09-23T12:13:19;4.80;;;2.40;;
67571;SDS011;54397;47.506;19.158;2022-09-23T12:20:40;3.90;;;3.38;;
67571;SDS011;54397;47.506;19.158;2022-09-23T12:27:35;5.90;;;3.60;;
67571;SDS011;54397;47.506;19.158;2022-09-23T12:31:00;4.03;;;3.00;;
67571;SDS011;54397;47.506;19.158;2022-09-23T12:34:29;4.03;;;2.83;;
67571;SDS011;54397;47.506;19.158;2022-09-23T12:37:58;4.93;;;2.70;;
67571;SDS011;54397;47.506;19.158;2022-09-23T12:44:52;7.35;;;4.82;;
67571;SDS011;54397;47.506;19.158;2022-09-23T12:55:43;8.07;;;3.92;;
67571;SDS011;54397;47.506;19.158;2022-09-23T13:02:37;5.25;;;2.40;;
67571;SDS011;54397;47.506;19.158;2022-09-23T13:06:00;3.38;;;2.80;;
67571;SDS011;54397;47.506;19.158;2022-09-23T13:09:40;3.78;;;2.67;;
67571;SDS011;54397;47.506;19.158;2022-09-23T13:13:08;3.00;;;2.55;;
67571;SDS011;54397;47.506;19.158;2022-09-23T13:16:42;4.78;;;3.22;;
67571;SDS011;54397;47.506;19.158;2022-09-23T13:23:42;5.45;;;3.10;;
67571;SDS011;54397;47.506;19.158;2022-09-23T13:27:33;3.47;;;2.45;;
67571;SDS011;54397;47.506;19.158;2022-09-23T13:30:56;7.97;;;2.42;;
67571;SDS011;54397;47.506;19.158;2022-09-23T13:34:23;3.78;;;2.58;;
67571;SDS011;54397;47.506;19.158;2022-09-23T13:37:50;2.92;;;2.40;;
67571;SDS011;54397;47.506;19.158;2022-09-23T13:41:16;4.13;;;3.00;;
67571;SDS011;54397;47.506;19.158;2022-09-23T13:44:39;5.95;;;2.67;;
67571;SDS011;54397;47.506;19.158;2022-09-23T13:48:05;7.57;;;3.20;;
67571;SDS011;54397;47.506;19.158;2022-09-23T13:51:34;4.65;;;2.60;;
67571;SDS011;54397;47.506;19.158;2022-09-23T13:54:56;4.75;;;2.50;;
67571;SDS011;54397;47.506;19.158;2022-09-23T13:58:21;4.00;;;2.58;;
67571;SDS011;54397;47.506;19.158;2022-09-23T14:01:44;3.92;;;2.78;;
67571;SDS011;54397;47.506;19.158;2022-09-23T14:05:11;5.13;;;3.30;;
67571;SDS011;54397;47.506;19.158;2022-09-23T14:08:48;3.08;;;2.60;;
67571;SDS011;54397;47.506;19.158;2022-09-23T14:12:11;9.43;;;3.00;;
67571;SDS011;54397;47.506;19.158;2022-09-23T14:15:34;3.35;;;2.78;;
67571;SDS011;54397;47.506;19.158;2022-09-23T14:18:57;4.75;;;2.83;;
67571;SDS011;54397;47.506;19.158;2022-09-23T14:22:25;5.32;;;2.90;;
67571;SDS011;54397;47.506;19.158;2022-09-23T14:25:49;5.53;;;2.70;;
67571;SDS011;54397;47.506;19.158;2022-09-23T14:29:33;3.90;;;2.50;;
67571;SDS011;54397;47.506;19.158;2022-09-23T14:33:06;2.65;;;2.30;;
67571;SDS011;54397;47.506;19.158;2022-09-23T14:36:33;4.70;;;3.10;;
67571;SDS011;54397;47.506;19.158;2022-09-23T14:44:16;5.35;;;4.50;;
67571;SDS011;54397;47.506;19.158;2022-09-23T14:47:40;3.75;;;2.60;;
67571;SDS011;54397;47.506;19.158;2022-09-23T14:51:06;10.70;;;8.48;;
67571;SDS011;54397;47.506;19.158;2022-09-23T14:54:40;3.47;;;3.15;;
67571;SDS011;54397;47.506;19.158;2022-09-23T14:58:05;5.65;;;2.92;;
67571;SDS011;54397;47.506;19.158;2022-09-23T15:01:37;8.05;;;3.72;;
67571;SDS011;54397;47.506;19.158;2022-09-23T15:05:09;2.90;;;2.60;;
67571;SDS011;54397;47.506;19.158;2022-09-23T15:08:35;4.47;;;2.47;;
67571;SDS011;54397;47.506;19.158;2022-09-23T15:12:13;4.43;;;2.25;;
67571;SDS011;54397;47.506;19.158;2022-09-23T15:15:40;4.03;;;3.30;;
67571;SDS011;54397;47.506;19.158;2022-09-23T15:19:03;3.95;;;3.28;;
67571;SDS011;54397;47.506;19.158;2022-09-23T15:22:25;2.78;;;2.33;;
67571;SDS011;54397;47.506;19.158;2022-09-23T15:25:49;8.00;;;2.58;;
67571;SDS011;54397;47.506;19.158;2022-09-23T15:29:12;8.10;;;2.70;;
67571;SDS011;54397;47.506;19.158;2022-09-23T15:32:33;5.47;;;2.50;;
67571;SDS011;54397;47.506;19.158;2022-09-23T15:36:00;4.45;;;2.50;;
67571;SDS011;54397;47.506;19.158;2022-09-23T15:39:25;4.63;;;2.10;;
67571;SDS011;54397;47.506;19.158;2022-09-23T15:42:57;5.07;;;2.20;;
67571;SDS011;54397;47.506;19.158;2022-09-23T15:46:21;4.40;;;2.70;;
67571;SDS011;54397;47.506;19.158;2022-09-23T15:49:44;5.32;;;3.83;;
67571;SDS011;54397;47.506;19.158;2022-09-23T15:53:09;7.43;;;3.03;;
67571;SDS011;54397;47.506;19.158;2022-09-23T15:56:40;8.00;;;2.78;;
67571;SDS011;54397;47.506;19.158;2022-09-23T16:00:04;2.92;;;2.30;;
67571;SDS011;54397;47.506;19.158;2022-09-23T16:03:32;3.95;;;2.58;;
67571;SDS011;54397;47.506;19.158;2022-09-23T16:06:56;5.15;;;2.90;;
67571;SDS011;54397;47.506;19.158;2022-09-23T16:10:21;4.38;;;3.20;;
67571;SDS011;54397;47.506;19.158;2022-09-23T16:13:43;3.22;;;2.72;;
67571;SDS011;54397;47.506;19.158;2022-09-23T16:17:05;6.40;;;3.28;;
67571;SDS011;54397;47.506;19.158;2022-09-23T16:20:28;10.52;;;5.35;;
67571;SDS011;54397;47.506;19.158;2022-09-23T16:23:50;7.82;;;4.55;;
67571;SDS011;54397;47.506;19.158;2022-09-23T16:27:15;6.13;;;3.17;;
67571;SDS011;54397;47.506;19.158;2022-09-23T16:30:40;5.32;;;3.20;;
67571;SDS011;54397;47.506;19.158;2022-09-23T16:34:02;4.05;;;3.10;;
67571;SDS011;54397;47.506;19.158;2022-09-23T16:37:24;9.95;;;3.42;;
67571;SDS011;54397;47.506;19.158;2022-09-23T16:40:45;5.35;;;2.85;;
67571;SDS011;54397;47.506;19.158;2022-09-23T16:44:07;10.98;;;4.75;;
67571;SDS011;54397;47.506;19.158;2022-09-23T16:47:30;6.45;;;3.53;;
67571;SDS011;54397;47.506;19.158;2022-09-23T16:50:55;6.22;;;3.40;;
67571;SDS011;54397;47.506;19.158;2022-09-23T16:54:16;5.50;;;3.75;;
67571;SDS011;54397;47.506;19.158;2022-09-23T16:57:39;4.93;;;3.83;;
67571;SDS011;54397;47.506;19.158;2022-09-23T17:01:06;6.43;;;3.72;;
67571;SDS011;54397;47.506;19.158;2022-09-23T17:04:51;7.97;;;3.97;;
67571;SDS011;54397;47.506;19.158;2022-09-23T17:08:13;6.40;;;3.80;;
67571;SDS011;54397;47.506;19.158;2022-09-23T17:11:39;7.65;;;4.38;;
67571;SDS011;54397;47.506;19.158;2022-09-23T17:15:05;6.75;;;4.72;;
67571;SDS011;54397;47.506;19.158;2022-09-23T17:18:27;5.32;;;4.05;;
67571;SDS011;54397;47.506;19.158;2022-09-23T17:21:49;7.93;;;4.20;;
67571;SDS011;54397;47.506;19.158;2022-09-23T17:25:13;6.93;;;4.13;;
67571;SDS011;54397;47.506;19.158;2022-09-23T17:28:39;6.72;;;3.83;;
67571;SDS011;54397;47.506;19.158;2022-09-23T17:32:03;6.68;;;4.07;;
67571;SDS011;54397;47.506;19.158;2022-09-23T17:35:25;6.80;;;4.40;;
67571;SDS011;54397;47.506;19.158;2022-09-23T17:38:46;8.25;;;4.95;;
67571;SDS011;54397;47.506;19.158;2022-09-23T17:42:11;10.55;;;4.63;;
67571;SDS011;54397;47.506;19.158;2022-09-23T17:45:38;6.68;;;3.72;;
67571;SDS011;54397;47.506;19.158;2022-09-23T17:49:03;5.05;;;3.70;;
67571;SDS011;54397;47.506;19.158;2022-09-23T17:52:28;8.38;;;4.28;;
67571;SDS011;54397;47.506;19.158;2022-09-23T17:55:53;11.57;;;5.10;;
67571;SDS011;54397;47.506;19.158;2022-09-23T17:59:15;7.43;;;4.85;;
67571;SDS011;54397;47.506;19.158;2022-09-23T18:02:39;8.63;;;5.45;;
67571;SDS011;54397;47.506;19.158;2022-09-23T18:06:05;9.15;;;5.50;;
67571;SDS011;54397;47.506;19.158;2022-09-23T18:09:31;9.18;;;6.03;;
67571;SDS011;54397;47.506;19.158;2022-09-23T18:12:52;9.63;;;6.10;;
67571;SDS011;54397;47.506;19.158;2022-09-23T18:16:17;14.13;;;6.72;;
67571;SDS011;54397;47.506;19.158;2022-09-23T18:19:40;12.18;;;6.88;;
67571;SDS011;54397;47.506;19.158;2022-09-23T18:23:02;13.65;;;6.75;;
67571;SDS011;54397;47.506;19.158;2022-09-23T18:26:24;9.75;;;6.90;;
67571;SDS011;54397;47.506;19.158;2022-09-23T18:29:49;14.95;;;7.93;;
67571;SDS011;54397;47.506;19.158;2022-09-23T18:33:12;13.32;;;8.15;;
67571;SDS011;54397;47.506;19.158;2022-09-23T18:36:35;16.40;;;7.32;;
67571;SDS011;54397;47.506;19.158;2022-09-23T18:40:00;14.32;;;7.45;;
67571;SDS011;54397;47.506;19.158;2022-09-23T18:43:28;16.90;;;8.90;;
67571;SDS011;54397;47.506;19.158;2022-09-23T18:46:59;16.67;;;9.23;;
67571;SDS011;54397;47.506;19.158;2022-09-23T18:50:23;16.73;;;10.60;;
67571;SDS011;54397;47.506;19.158;2022-09-23T18:54:03;24.63;;;9.55;;
67571;SDS011;54397;47.506;19.158;2022-09-23T18:57:26;17.52;;;9.55;;
67571;SDS011;54397;47.506;19.158;2022-09-23T19:00:50;15.73;;;8.82;;
67571;SDS011;54397;47.506;19.158;2022-09-23T19:04:14;13.82;;;9.27;;
67571;SDS011;54397;47.506;19.158;2022-09-23T19:07:37;13.30;;;9.88;;
67571;SDS011;54397;47.506;19.158;2022-09-23T19:10:59;15.13;;;9.50;;
67571;SDS011;54397;47.506;19.158;2022-09-23T19:14:22;10.63;;;7.95;;
67571;SDS011;54397;47.506;19.158;2022-09-23T19:17:47;12.13;;;8.45;;
67571;SDS011;54397;47.506;19.158;2022-09-23T19:21:11;13.77;;;7.93;;
67571;SDS011;54397;47.506;19.158;2022-09-23T19:24:34;14.25;;;8.07;;
67571;SDS011;54397;47.506;19.158;2022-09-23T19:27:55;10.88;;;7.15;;
67571;SDS011;54397;47.506;19.158;2022-09-23T19:31:20;10.75;;;7.78;;
67571;SDS011;54397;47.506;19.158;2022-09-23T19:34:46;11.93;;;9.32;;
67571;SDS011;54397;47.506;19.158;2022-09-23T19:38:10;18.27;;;9.07;;
67571;SDS011;54397;47.506;19.158;2022-09-23T19:41:32;16.88;;;9.30;;
67571;SDS011;54397;47.506;19.158;2022-09-23T19:44:55;15.68;;;9.02;;
67571;SDS011;54397;47.506;19.158;2022-09-23T19:48:19;14.57;;;9.18;;
67571;SDS011;54397;47.506;19.158;2022-09-23T19:51:43;17.27;;;9.30;;
67571;SDS011;54397;47.506;19.158;2022-09-23T19:55:07;17.42;;;9.50;;
67571;SDS011;54397;47.506;19.158;2022-09-23T19:58:31;13.57;;;8.63;;
67571;SDS011;54397;47.506;19.158;2022-09-23T20:01:55;14.43;;;8.93;;
67571;SDS011;54397;47.506;19.158;2022-09-23T20:05:17;11.77;;;8.30;;
67571;SDS011;54397;47.506;19.158;2022-09-23T20:08:41;13.00;;;8.55;;
67571;SDS011;54397;47.506;19.158;2022-09-23T20:12:05;13.52;;;8.38;;
67571;SDS011;54397;47.506;19.158;2022-09-23T20:15:29;16.48;;;9.02;;
67571;SDS011;54397;47.506;19.158;2022-09-23T20:18:59;19.20;;;10.90;;
67571;SDS011;54397;47.506;19.158;2022-09-23T20:22:21;11.75;;;8.38;;
67571;SDS011;54397;47.506;19.158;2022-09-23T20:25:56;13.52;;;8.55;;
67571;SDS011;54397;47.506;19.158;2022-09-23T20:29:39;14.15;;;8.85;;
67571;SDS011;54397;47.506;19.158;2022-09-23T20:33:03;13.80;;;8.98;;
67571;SDS011;54397;47.506;19.158;2022-09-23T20:36:29;18.02;;;8.77;;
67571;SDS011;54397;47.506;19.158;2022-09-23T20:39:51;14.75;;;9.23;;
67571;SDS011;54397;47.506;19.158;2022-09-23T20:43:13;17.65;;;10.65;;
67571;SDS011;54397;47.506;19.158;2022-09-23T20:46:41;10.73;;;8.43;;
67571;SDS011;54397;47.506;19.158;2022-09-23T20:50:08;15.25;;;8.52;;
67571;SDS011;54397;47.506;19.158;2022-09-23T20:53:30;16.20;;;9.52;;
67571;SDS011;54397;47.506;19.158;2022-09-23T20:56:52;25.23;;;16.10;;
67571;SDS011;54397;47.506;19.158;2022-09-23T21:00:20;18.37;;;11.60;;
67571;SDS011;54397;47.506;19.158;2022-09-23T21:03:45;14.55;;;8.60;;
67571;SDS011;54397;47.506;19.158;2022-09-23T21:07:08;13.38;;;8.70;;
67571;SDS011;54397;47.506;19.158;2022-09-23T21:10:33;12.02;;;7.82;;
67571;SDS011;54397;47.506;19.158;2022-09-23T21:13:58;15.43;;;8.68;;
67571;SDS011;54397;47.506;19.158;2022-09-23T21:17:21;12.43;;;8.73;;
67571;SDS011;54397;47.506;19.158;2022-09-23T21:20:54;12.30;;;8.30;;
67571;SDS011;54397;47.506;19.158;2022-09-23T21:24:20;16.05;;;10.95;;
67571;SDS011;54397;47.506;19.158;2022-09-23T21:28:02;24.40;;;14.65;;
67571;SDS011;54397;47.506;19.158;2022-09-23T21:31:25;20.20;;;11.50;;
67571;SDS011;54397;47.506;19.158;2022-09-23T21:34:48;14.82;;;9.63;;
67571;SDS011;54397;47.506;19.158;2022-09-23T21:38:10;14.63;;;9.18;;
67571;SDS011;54397;47.506;19.158;2022-09-23T21:41:34;14.43;;;9.57;;
67571;SDS011;54397;47.506;19.158;2022-09-23T21:44:56;19.40;;;11.35;;
67571;SDS011;54397;47.506;19.158;2022-09-23T21:48:18;17.05;;;10.60;;
67571;SDS011;54397;47.506;19.158;2022-09-23T21:51:39;18.60;;;10.50;;
67571;SDS011;54397;47.506;19.158;2022-09-23T21:55:01;19.02;;;11.07;;
67571;SDS011;54397;47.506;19.158;2022-09-23T21:58:26;19.25;;;10.10;;
67571;SDS011;54397;47.506;19.158;2022-09-23T22:01:48;13.60;;;9.38;;
67571;SDS011;54397;47.506;19.158;2022-09-23T22:05:14;18.92;;;9.68;;
67571;SDS011;54397;47.506;19.158;2022-09-23T22:08:39;14.25;;;8.93;;
67571;SDS011;54397;47.506;19.158;2022-09-23T22:12:05;15.93;;;9.15;;
67571;SDS011;54397;47.506;19.158;2022-09-23T22:15:33;13.52;;;8.95;;
67571;SDS011;54397;47.506;19.158;2022-09-23T22:18:58;12.75;;;9.05;;
67571;SDS011;54397;47.506;19.158;2022-09-23T22:22:25;15.07;;;8.97;;
67571;SDS011;54397;47.506;19.158;2022-09-23T22:25:54;18.27;;;9.23;;
67571;SDS011;54397;47.506;19.158;2022-09-23T22:29:23;16.55;;;8.70;;
67571;SDS011;54397;47.506;19.158;2022-09-23T22:33:02;15.00;;;8.70;;
67571;SDS011;54397;47.506;19.158;2022-09-23T22:36:27;14.93;;;9.13;;
67571;SDS011;54397;47.506;19.158;2022-09-23T22:39:48;14.18;;;7.97;;
67571;SDS011;54397;47.506;19.158;2022-09-23T22:43:12;12.90;;;8.55;;
67571;SDS011;54397;47.506;19.158;2022-09-23T22:46:34;16.02;;;9.30;;
67571;SDS011;54397;47.506;19.158;2022-09-23T22:49:55;12.73;;;8.93;;
67571;SDS011;54397;47.506;19.158;2022-09-23T22:53:19;13.52;;;8.82;;